createdAt,value
2019-02-09T00:00:28.816Z,995.15
2019-02-09T00:01:28.794Z,995.18
2019-02-09T00:02:28.817Z,995.15
2019-02-09T00:03:28.750Z,995.16
2019-02-09T00:04:28.731Z,995.13
2019-02-09T00:05:28.702Z,995.05
2019-02-09T00:06:28.672Z,995.03
2019-02-09T00:07:28.650Z,995.02
2019-02-09T00:08:28.640Z,995.10
2019-02-09T00:09:28.610Z,995.21
2019-02-09T00:10:28.578Z,995.17
2019-02-09T00:11:28.554Z,995.26
2019-02-09T00:12:29.770Z,995.24
2019-02-09T00:13:28.555Z,995.11
2019-02-09T00:14:28.495Z,995.13
2019-02-09T00:15:28.463Z,995.09
2019-02-09T00:16:28.435Z,994.98
2019-02-09T00:17:28.420Z,995.06
2019-02-09T00:18:28.389Z,995.13
2019-02-09T00:19:28.373Z,995.17
2019-02-09T00:20:28.340Z,995.17
2019-02-09T00:21:28.320Z,995.08
2019-02-09T00:22:28.297Z,995.06
2019-02-09T00:23:28.275Z,995.06
2019-02-09T00:24:28.246Z,995.06
2019-02-09T00:25:28.223Z,995.08
2019-02-09T00:26:28.198Z,995.13
2019-02-09T00:27:28.183Z,995.07
2019-02-09T00:28:28.150Z,994.97
2019-02-09T00:29:28.125Z,994.89
2019-02-09T00:30:28.133Z,994.94
2019-02-09T00:31:28.079Z,994.91
2019-02-09T00:32:28.055Z,994.90
2019-02-09T00:33:28.031Z,994.96
2019-02-09T00:34:28.178Z,994.95
2019-02-09T00:35:27.986Z,994.84
2019-02-09T00:36:27.971Z,994.87
2019-02-09T00:37:27.936Z,994.77
2019-02-09T00:38:27.913Z,994.85
2019-02-09T00:39:27.895Z,994.88
2019-02-09T00:40:27.864Z,994.83
2019-02-09T00:41:27.849Z,994.78
2019-02-09T00:42:27.822Z,994.79
2019-02-09T00:43:27.792Z,994.76
2019-02-09T00:44:27.770Z,994.77
2019-02-09T00:45:27.758Z,994.79
2019-02-09T00:46:27.719Z,994.79
2019-02-09T00:47:27.696Z,994.80
2019-02-09T00:48:27.682Z,994.83
2019-02-09T00:49:27.657Z,994.83
2019-02-09T00:50:27.641Z,994.88
2019-02-09T00:51:27.618Z,994.83
2019-02-09T00:52:27.578Z,994.93
2019-02-09T00:53:27.554Z,994.93
2019-02-09T00:54:27.533Z,994.89
2019-02-09T00:55:27.509Z,994.95
2019-02-09T00:56:27.482Z,994.96
2019-02-09T00:57:27.460Z,994.93
2019-02-09T00:58:27.435Z,994.96
2019-02-09T00:59:27.417Z,994.92
2019-02-09T01:00:27.389Z,994.86
2019-02-09T01:01:27.366Z,994.90
2019-02-09T01:02:27.340Z,994.86
2019-02-09T01:03:27.316Z,994.81
2019-02-09T01:04:27.301Z,994.82
2019-02-09T01:05:27.269Z,994.82
2019-02-09T01:06:27.246Z,994.74
2019-02-09T01:07:27.229Z,994.76
2019-02-09T01:08:27.196Z,994.87
2019-02-09T01:09:27.190Z,994.80
2019-02-09T01:10:27.159Z,994.82
2019-02-09T01:11:27.132Z,994.85
2019-02-09T01:12:27.109Z,994.77
2019-02-09T01:13:27.085Z,994.71
2019-02-09T01:14:27.066Z,994.73
2019-02-09T01:15:27.029Z,994.71
2019-02-09T01:16:27.006Z,994.64
2019-02-09T01:17:26.988Z,994.57
2019-02-09T01:18:26.959Z,994.51
2019-02-09T01:19:26.935Z,994.45
2019-02-09T01:20:26.921Z,994.42
2019-02-09T01:21:26.895Z,994.35
2019-02-09T01:22:26.869Z,994.32
2019-02-09T01:23:26.838Z,994.32
2019-02-09T01:24:26.833Z,994.28
2019-02-09T01:25:26.794Z,994.34
2019-02-09T01:26:26.773Z,994.32
2019-02-09T01:27:26.751Z,994.31
2019-02-09T01:28:26.724Z,994.36
2019-02-09T01:29:26.694Z,994.40
2019-02-09T01:30:26.695Z,994.35
2019-02-09T01:31:26.656Z,994.27
2019-02-09T01:32:26.623Z,994.24
2019-02-09T01:33:26.598Z,994.17
2019-02-09T01:34:26.585Z,994.17
2019-02-09T01:35:26.563Z,994.11
2019-02-09T01:36:26.535Z,994.11
2019-02-09T01:37:26.520Z,994.15
2019-02-09T01:38:26.480Z,994.07
2019-02-09T01:39:26.462Z,994.02
2019-02-09T01:40:26.429Z,994.03
2019-02-09T01:41:26.407Z,994.08
2019-02-09T01:42:26.391Z,994.02
2019-02-09T01:43:26.358Z,993.99
2019-02-09T01:44:26.335Z,993.96
2019-02-09T01:45:26.310Z,993.96
2019-02-09T01:46:26.290Z,993.96
2019-02-09T01:47:26.262Z,994.00
2019-02-09T01:48:26.245Z,993.95
2019-02-09T01:49:26.225Z,993.92
2019-02-09T01:50:26.190Z,993.85
2019-02-09T01:51:26.166Z,993.81
2019-02-09T01:52:26.143Z,993.80
2019-02-09T01:53:26.118Z,993.87
2019-02-09T01:54:26.095Z,993.83
2019-02-09T01:55:26.069Z,993.86
2019-02-09T01:56:26.046Z,993.89
2019-02-09T01:57:26.022Z,993.91
2019-02-09T01:58:26.010Z,993.95
2019-02-09T01:59:25.974Z,993.91
2019-02-09T02:00:25.958Z,993.95
2019-02-09T02:01:25.926Z,993.89
2019-02-09T02:02:25.901Z,993.89
2019-02-09T02:03:25.879Z,993.89
2019-02-09T02:04:25.855Z,993.81
2019-02-09T02:05:25.829Z,993.90
2019-02-09T02:06:25.805Z,993.89
2019-02-09T02:07:25.780Z,993.91
2019-02-09T02:08:25.758Z,993.90
2019-02-09T02:09:25.743Z,993.84
2019-02-09T02:10:25.720Z,993.90
2019-02-09T02:11:25.688Z,993.88
2019-02-09T02:12:25.666Z,993.82
2019-02-09T02:13:25.638Z,993.80
2019-02-09T02:14:25.618Z,993.77
2019-02-09T02:15:25.592Z,993.75
2019-02-09T02:16:25.566Z,993.79
2019-02-09T02:17:25.542Z,993.70
2019-02-09T02:18:25.518Z,993.66
2019-02-09T02:19:25.496Z,993.76
2019-02-09T02:20:25.471Z,993.76
2019-02-09T02:21:25.457Z,993.72
2019-02-09T02:22:25.422Z,993.75
2019-02-09T02:23:25.427Z,993.72
2019-02-09T02:24:25.374Z,993.70
2019-02-09T02:25:25.360Z,993.73
2019-02-09T02:26:25.335Z,993.75
2019-02-09T02:27:25.303Z,993.74
2019-02-09T02:28:25.279Z,993.79
2019-02-09T02:29:25.255Z,993.80
2019-02-09T02:30:25.235Z,993.76
2019-02-09T02:31:25.213Z,993.72
2019-02-09T02:32:25.200Z,993.75
2019-02-09T02:33:25.175Z,993.65
2019-02-09T02:34:25.155Z,993.68
2019-02-09T02:35:25.110Z,993.73
2019-02-09T02:36:25.085Z,993.72
2019-02-09T02:37:25.076Z,993.64
2019-02-09T02:38:25.041Z,993.60
2019-02-09T02:39:25.015Z,993.64
2019-02-09T02:40:24.997Z,993.61
2019-02-09T02:41:24.975Z,993.58
2019-02-09T02:42:24.947Z,993.61
2019-02-09T02:43:24.919Z,993.67
2019-02-09T02:44:24.900Z,993.61
2019-02-09T02:45:24.874Z,993.62
2019-02-09T02:46:24.852Z,993.65
2019-02-09T02:47:24.822Z,993.64
2019-02-09T02:48:24.909Z,993.61
2019-02-09T02:49:24.777Z,993.51
2019-02-09T02:50:24.757Z,993.47
2019-02-09T02:51:24.737Z,993.47
2019-02-09T02:52:24.703Z,993.39
2019-02-09T02:53:24.680Z,993.38
2019-02-09T02:54:24.654Z,993.34
2019-02-09T02:55:24.673Z,993.31
2019-02-09T02:56:24.613Z,993.27
2019-02-09T02:57:24.584Z,993.31
2019-02-09T02:58:24.559Z,993.32
2019-02-09T02:59:24.540Z,993.28
2019-02-09T03:00:31.854Z,993.24
2019-02-09T03:01:24.487Z,993.25
2019-02-09T03:02:24.466Z,993.17
2019-02-09T03:03:24.449Z,993.08
2019-02-09T03:04:24.418Z,993.16
2019-02-09T03:05:24.390Z,993.17
2019-02-09T03:06:24.366Z,993.15
2019-02-09T03:07:24.343Z,993.19
2019-02-09T03:08:24.319Z,993.19
2019-02-09T03:09:24.298Z,993.24
2019-02-09T03:10:24.270Z,993.20
2019-02-09T03:11:24.246Z,993.18
2019-02-09T03:12:24.222Z,993.25
2019-02-09T03:13:24.203Z,993.23
2019-02-09T03:14:24.173Z,993.23
2019-02-09T03:15:24.165Z,993.33
2019-02-09T03:16:24.126Z,993.35
2019-02-09T03:17:24.105Z,993.37
2019-02-09T03:18:24.085Z,993.37
2019-02-09T03:19:24.055Z,993.31
2019-02-09T03:20:24.034Z,993.27
2019-02-09T03:21:24.007Z,993.26
2019-02-09T03:22:23.983Z,993.30
2019-02-09T03:23:23.962Z,993.27
2019-02-09T03:24:23.935Z,993.22
2019-02-09T03:25:23.910Z,993.15
2019-02-09T03:26:23.890Z,993.21
2019-02-09T03:27:23.862Z,993.21
2019-02-09T03:28:23.848Z,993.22
2019-02-09T03:29:23.815Z,993.27
2019-02-09T03:30:23.818Z,993.35
2019-02-09T03:31:23.767Z,993.40
2019-02-09T03:32:23.750Z,993.31
2019-02-09T03:33:23.723Z,993.27
2019-02-09T03:34:23.695Z,993.21
2019-02-09T03:35:23.672Z,993.24
2019-02-09T03:36:23.648Z,993.25
2019-02-09T03:37:23.632Z,993.30
2019-02-09T03:38:23.603Z,993.21
2019-02-09T03:39:23.586Z,993.21
2019-02-09T03:40:23.560Z,993.26
2019-02-09T03:41:23.527Z,993.35
2019-02-09T03:42:23.511Z,993.40
2019-02-09T03:43:23.479Z,993.38
2019-02-09T03:44:23.466Z,993.44
2019-02-09T03:45:23.434Z,993.44
2019-02-09T03:46:23.407Z,993.36
2019-02-09T03:47:23.383Z,993.37
2019-02-09T03:48:23.367Z,993.42
2019-02-09T03:49:23.338Z,993.43
2019-02-09T03:50:23.312Z,993.49
2019-02-09T03:51:23.289Z,993.49
2019-02-09T03:52:23.263Z,993.49
2019-02-09T03:53:23.239Z,993.48
2019-02-09T03:54:23.215Z,993.55
2019-02-09T03:55:23.195Z,993.50
2019-02-09T03:56:23.172Z,993.50
2019-02-09T03:57:23.147Z,993.51
2019-02-09T03:58:23.134Z,993.55
2019-02-09T03:59:23.100Z,993.56
2019-02-09T04:00:23.072Z,993.53
2019-02-09T04:01:23.069Z,993.50
2019-02-09T04:02:23.024Z,993.42
2019-02-09T04:03:23.003Z,993.41
2019-02-09T04:04:22.978Z,993.52
2019-02-09T04:05:22.965Z,993.53
2019-02-09T04:06:22.928Z,993.53
2019-02-09T04:07:22.904Z,993.56
2019-02-09T04:08:22.880Z,993.51
2019-02-09T04:09:22.864Z,993.44
2019-02-09T04:10:22.846Z,993.46
2019-02-09T04:11:22.812Z,993.54
2019-02-09T04:12:22.785Z,993.58
2019-02-09T04:13:22.763Z,993.58
2019-02-09T04:14:22.740Z,993.56
2019-02-09T04:15:22.715Z,993.55
2019-02-09T04:16:22.692Z,993.63
2019-02-09T04:17:22.674Z,993.62
2019-02-09T04:18:22.646Z,993.64
2019-02-09T04:19:22.620Z,993.64
2019-02-09T04:20:22.594Z,993.61
2019-02-09T04:21:22.572Z,993.57
2019-02-09T04:22:22.700Z,993.56
2019-02-09T04:23:22.529Z,993.56
2019-02-09T04:24:22.502Z,993.59
2019-02-09T04:25:22.477Z,993.62
2019-02-09T04:26:22.453Z,993.56
2019-02-09T04:27:22.426Z,993.49
2019-02-09T04:28:22.404Z,993.58
2019-02-09T04:29:22.378Z,993.61
2019-02-09T04:30:22.355Z,993.60
2019-02-09T04:31:22.330Z,993.60
2019-02-09T04:32:22.321Z,993.55
2019-02-09T04:33:22.283Z,993.60
2019-02-09T04:34:22.263Z,993.53
2019-02-09T04:35:22.246Z,993.58
2019-02-09T04:36:22.222Z,993.54
2019-02-09T04:37:22.187Z,993.54
2019-02-09T04:38:22.167Z,993.56
2019-02-09T04:39:22.141Z,993.57
2019-02-09T04:40:22.123Z,993.56
2019-02-09T04:41:22.105Z,993.56
2019-02-09T04:42:22.075Z,993.55
2019-02-09T04:43:22.050Z,993.53
2019-02-09T04:44:22.024Z,993.59
2019-02-09T04:45:21.999Z,993.61
2019-02-09T04:46:21.974Z,993.48
2019-02-09T04:47:21.952Z,993.53
2019-02-09T04:48:21.940Z,993.50
2019-02-09T04:49:21.907Z,993.59
2019-02-09T04:50:21.893Z,993.57
2019-02-09T04:51:21.855Z,993.55
2019-02-09T04:52:21.836Z,993.59
2019-02-09T04:53:21.826Z,993.61
2019-02-09T04:54:21.785Z,993.59
2019-02-09T04:55:21.767Z,993.56
2019-02-09T04:56:21.742Z,993.55
2019-02-09T04:57:21.727Z,993.57
2019-02-09T04:58:21.692Z,993.56
2019-02-09T04:59:21.665Z,993.56
2019-02-09T05:00:21.646Z,993.65
2019-02-09T05:01:21.617Z,993.60
2019-02-09T05:02:21.599Z,993.61
2019-02-09T05:03:21.583Z,993.60
2019-02-09T05:04:21.547Z,993.57
2019-02-09T05:05:21.525Z,993.67
2019-02-09T05:06:21.501Z,993.64
2019-02-09T05:07:21.477Z,993.68
2019-02-09T05:08:21.452Z,993.73
2019-02-09T05:09:21.427Z,993.70
2019-02-09T05:10:21.407Z,993.78
2019-02-09T05:11:21.381Z,993.70
2019-02-09T05:12:21.366Z,993.79
2019-02-09T05:13:21.333Z,993.73
2019-02-09T05:14:21.318Z,993.73
2019-02-09T05:15:21.290Z,993.78
2019-02-09T05:16:21.264Z,993.82
2019-02-09T05:17:21.239Z,993.81
2019-02-09T05:18:21.217Z,993.86
2019-02-09T05:19:21.193Z,993.97
2019-02-09T05:20:21.179Z,993.88
2019-02-09T05:21:21.160Z,993.81
2019-02-09T05:22:21.121Z,993.91
2019-02-09T05:23:21.099Z,993.90
2019-02-09T05:24:21.076Z,993.87
2019-02-09T05:25:21.046Z,993.83
2019-02-09T05:26:21.025Z,993.88
2019-02-09T05:27:21.004Z,993.92
2019-02-09T05:28:20.978Z,993.92
2019-02-09T05:29:20.956Z,993.95
2019-02-09T05:30:20.937Z,993.92
2019-02-09T05:31:23.201Z,993.95
2019-02-09T05:32:20.886Z,994.09
2019-02-09T05:33:20.860Z,994.00
2019-02-09T05:34:20.837Z,994.11
2019-02-09T05:35:20.830Z,993.96
2019-02-09T05:36:20.789Z,993.88
2019-02-09T05:37:20.772Z,994.03
2019-02-09T05:38:20.750Z,993.92
2019-02-09T05:39:20.718Z,994.08
2019-02-09T05:40:20.694Z,994.09
2019-02-09T05:41:20.671Z,994.08
2019-02-09T05:42:20.651Z,994.16
2019-02-09T05:43:20.623Z,994.13
2019-02-09T05:44:20.601Z,994.28
2019-02-09T05:45:20.587Z,994.25
2019-02-09T05:46:20.552Z,994.24
2019-02-09T05:47:20.529Z,994.24
2019-02-09T05:48:20.502Z,994.28
2019-02-09T05:49:20.672Z,994.26
2019-02-09T05:50:20.489Z,994.32
2019-02-09T05:51:20.436Z,994.35
2019-02-09T05:52:20.410Z,994.38
2019-02-09T05:53:20.387Z,994.36
2019-02-09T05:54:20.362Z,994.39
2019-02-09T05:55:20.350Z,994.42
2019-02-09T05:56:20.317Z,994.50
2019-02-09T05:57:20.291Z,994.44
2019-02-09T05:58:20.271Z,994.47
2019-02-09T05:59:20.249Z,994.56
2019-02-09T06:00:20.244Z,994.50
2019-02-09T06:01:20.195Z,994.59
2019-02-09T06:02:20.171Z,994.56
2019-02-09T06:03:20.157Z,994.63
2019-02-09T06:04:20.129Z,994.66
2019-02-09T06:05:20.102Z,994.50
2019-02-09T06:06:20.077Z,994.63
2019-02-09T06:07:20.055Z,994.65
2019-02-09T06:08:20.030Z,994.66
2019-02-09T06:09:20.005Z,994.65
2019-02-09T06:10:20.001Z,994.73
2019-02-09T06:11:19.965Z,994.80
2019-02-09T06:12:19.935Z,994.79
2019-02-09T06:13:19.924Z,994.74
2019-02-09T06:14:19.887Z,994.85
2019-02-09T06:15:19.864Z,994.90
2019-02-09T06:16:19.840Z,994.79
2019-02-09T06:17:19.814Z,994.89
2019-02-09T06:18:19.794Z,994.86
2019-02-09T06:19:19.770Z,994.78
2019-02-09T06:20:19.746Z,994.77
2019-02-09T06:21:19.721Z,994.67
2019-02-09T06:22:19.697Z,994.92
2019-02-09T06:23:19.674Z,994.80
2019-02-09T06:24:19.652Z,994.87
2019-02-09T06:25:19.657Z,994.80
2019-02-09T06:26:19.614Z,994.80
2019-02-09T06:27:19.582Z,994.87
2019-02-09T06:28:19.556Z,994.88
2019-02-09T06:29:19.533Z,994.85
2019-02-09T06:30:19.509Z,994.86
2019-02-09T06:31:19.489Z,994.96
2019-02-09T06:32:19.463Z,995.01
2019-02-09T06:33:19.437Z,994.86
2019-02-09T06:34:19.426Z,995.00
2019-02-09T06:35:19.398Z,994.98
2019-02-09T06:36:19.369Z,995.03
2019-02-09T06:37:19.342Z,995.11
2019-02-09T06:38:19.319Z,995.03
2019-02-09T06:39:19.304Z,995.01
2019-02-09T06:40:19.289Z,995.02
2019-02-09T06:41:19.261Z,994.90
2019-02-09T06:42:19.227Z,994.95
2019-02-09T06:43:19.208Z,995.14
2019-02-09T06:44:19.177Z,994.85
2019-02-09T06:45:19.154Z,995.04
2019-02-09T06:46:19.133Z,995.04
2019-02-09T06:47:19.109Z,995.09
2019-02-09T06:48:19.087Z,995.04
2019-02-09T06:49:19.068Z,995.15
2019-02-09T06:50:19.044Z,995.09
2019-02-09T06:51:19.023Z,995.08
2019-02-09T06:52:18.991Z,995.14
2019-02-09T06:53:18.964Z,995.28
2019-02-09T06:54:18.941Z,995.07
2019-02-09T06:55:18.918Z,995.13
2019-02-09T06:56:18.907Z,995.02
2019-02-09T06:57:20.007Z,995.20
2019-02-09T06:58:18.846Z,995.21
2019-02-09T06:59:18.824Z,995.16
2019-02-09T07:00:18.799Z,995.19
2019-02-09T07:01:18.775Z,995.35
2019-02-09T07:02:18.753Z,995.17
2019-02-09T07:03:18.739Z,995.19
2019-02-09T07:04:18.706Z,995.21
2019-02-09T07:05:18.685Z,995.30
2019-02-09T07:06:18.657Z,995.27
2019-02-09T07:07:18.641Z,995.20
2019-02-09T07:08:18.611Z,995.27
2019-02-09T07:09:18.605Z,995.26
2019-02-09T07:10:18.564Z,995.31
2019-02-09T07:11:18.541Z,995.32
2019-02-09T07:12:18.517Z,995.37
2019-02-09T07:13:18.493Z,995.32
2019-02-09T07:14:18.472Z,995.33
2019-02-09T07:15:18.452Z,995.17
2019-02-09T07:16:18.430Z,995.33
2019-02-09T07:17:18.398Z,995.34
2019-02-09T07:18:18.379Z,995.35
2019-02-09T07:19:18.352Z,995.42
2019-02-09T07:20:18.342Z,995.37
2019-02-09T07:21:18.304Z,995.43
2019-02-09T07:22:18.278Z,995.47
2019-02-09T07:23:18.256Z,995.47
2019-02-09T07:24:18.232Z,995.48
2019-02-09T07:25:18.212Z,995.45
2019-02-09T07:26:18.189Z,995.47
2019-02-09T07:27:18.162Z,995.44
2019-02-09T07:28:18.148Z,995.39
2019-02-09T07:29:18.124Z,995.43
2019-02-09T07:30:18.097Z,995.54
2019-02-09T07:31:18.067Z,995.47
2019-02-09T07:32:18.045Z,995.53
2019-02-09T07:33:18.019Z,995.50
2019-02-09T07:34:17.999Z,995.48
2019-02-09T07:35:17.991Z,995.68
2019-02-09T07:36:17.960Z,995.71
2019-02-09T07:37:17.929Z,995.72
2019-02-09T07:38:17.903Z,995.77
2019-02-09T07:39:17.878Z,995.77
2019-02-09T07:40:17.856Z,995.82
2019-02-09T07:41:17.832Z,995.81
2019-02-09T07:42:17.808Z,995.89
2019-02-09T07:43:17.787Z,995.93
2019-02-09T07:44:17.761Z,995.85
2019-02-09T07:45:17.738Z,995.94
2019-02-09T07:46:17.720Z,995.86
2019-02-09T07:47:17.697Z,995.99
2019-02-09T07:48:17.669Z,995.93
2019-02-09T07:49:17.645Z,995.93
2019-02-09T07:50:17.621Z,995.97
2019-02-09T07:51:17.607Z,995.92
2019-02-09T07:52:17.573Z,995.96
2019-02-09T07:53:17.550Z,995.96
2019-02-09T07:54:17.526Z,995.82
2019-02-09T07:55:17.515Z,996.01
2019-02-09T07:56:17.481Z,995.97
2019-02-09T07:57:17.456Z,996.00
2019-02-09T07:58:17.440Z,995.94
2019-02-09T07:59:17.410Z,996.05
2019-02-09T08:00:17.395Z,996.01
2019-02-09T08:01:17.362Z,995.99
2019-02-09T08:02:17.347Z,996.02
2019-02-09T08:03:17.351Z,995.95
2019-02-09T08:04:17.297Z,995.90
2019-02-09T08:05:17.272Z,996.02
2019-02-09T08:06:17.248Z,996.09
2019-02-09T08:07:17.226Z,996.00
2019-02-09T08:08:17.219Z,996.14
2019-02-09T08:09:17.189Z,996.09
2019-02-09T08:10:17.160Z,996.19
2019-02-09T08:11:17.133Z,996.19
2019-02-09T08:12:17.114Z,996.09
2019-02-09T08:13:17.084Z,996.10
2019-02-09T08:14:17.065Z,996.01
2019-02-09T08:15:17.045Z,996.16
2019-02-09T08:16:17.040Z,996.29
2019-02-09T08:17:16.994Z,996.17
2019-02-09T08:18:16.978Z,996.19
2019-02-09T08:19:16.944Z,996.15
2019-02-09T08:20:16.933Z,996.24
2019-02-09T08:21:16.907Z,996.30
2019-02-09T08:22:16.876Z,996.29
2019-02-09T08:23:16.854Z,996.38
2019-02-09T08:24:16.833Z,996.29
2019-02-09T08:25:16.806Z,996.46
2019-02-09T08:26:16.791Z,996.44
2019-02-09T08:27:23.401Z,996.47
2019-02-09T08:28:16.738Z,996.37
2019-02-09T08:29:16.716Z,996.47
2019-02-09T08:30:16.695Z,996.45
2019-02-09T08:31:16.678Z,996.43
2019-02-09T08:32:16.652Z,996.54
2019-02-09T08:33:16.633Z,996.52
2019-02-09T08:34:16.601Z,996.47
2019-02-09T08:35:16.583Z,996.51
2019-02-09T08:36:16.556Z,996.42
2019-02-09T08:37:16.589Z,996.49
2019-02-09T08:38:16.516Z,996.51
2019-02-09T08:39:16.487Z,996.52
2019-02-09T08:40:16.463Z,996.32
2019-02-09T08:41:16.445Z,996.53
2019-02-09T08:42:16.417Z,996.49
2019-02-09T08:43:16.396Z,996.38
2019-02-09T08:44:16.380Z,996.41
2019-02-09T08:45:16.349Z,996.37
2019-02-09T08:46:16.354Z,996.33
2019-02-09T08:47:16.308Z,996.49
2019-02-09T08:48:16.282Z,996.47
2019-02-09T08:49:16.276Z,996.52
2019-02-09T08:50:16.236Z,996.52
2019-02-09T08:51:16.313Z,996.55
2019-02-09T08:52:16.190Z,996.48
2019-02-09T08:53:16.167Z,996.59
2019-02-09T08:54:16.145Z,996.58
2019-02-09T08:55:16.124Z,996.67
2019-02-09T08:56:16.108Z,996.54
2019-02-09T08:57:16.081Z,996.65
2019-02-09T08:58:16.056Z,996.71
2019-02-09T08:59:16.047Z,996.60
2019-02-09T09:00:16.012Z,996.66
2019-02-09T09:01:15.987Z,996.55
2019-02-09T09:02:20.533Z,996.61
2019-02-09T09:03:15.953Z,996.44
2019-02-09T09:04:15.921Z,996.71
2019-02-09T09:05:15.914Z,996.61
2019-02-09T09:06:15.881Z,996.75
2019-02-09T09:07:15.862Z,996.83
2019-02-09T09:08:15.832Z,996.80
2019-02-09T09:09:15.808Z,996.74
2019-02-09T09:10:15.790Z,996.80
2019-02-09T09:11:15.767Z,996.71
2019-02-09T09:12:15.767Z,996.75
2019-02-09T09:13:15.737Z,996.68
2019-02-09T09:14:15.709Z,996.68
2019-02-09T09:15:15.675Z,996.70
2019-02-09T09:16:15.703Z,996.77
2019-02-09T09:17:15.631Z,996.75
2019-02-09T09:18:15.627Z,996.81
2019-02-09T09:19:15.588Z,996.74
2019-02-09T09:20:15.567Z,996.73
2019-02-09T09:21:15.540Z,996.85
2019-02-09T09:22:15.593Z,996.93
2019-02-09T09:23:15.525Z,996.63
2019-02-09T09:24:15.483Z,996.73
2019-02-09T09:25:15.454Z,996.84
2019-02-09T09:26:15.432Z,996.90
2019-02-09T09:27:15.417Z,996.64
2019-02-09T09:28:15.399Z,997.01
2019-02-09T09:29:15.367Z,996.72
2019-02-09T09:30:15.350Z,996.71
2019-02-09T09:31:15.321Z,996.69
2019-02-09T09:32:15.298Z,996.89
2019-02-09T09:33:15.287Z,996.87
2019-02-09T09:34:15.256Z,996.78
2019-02-09T09:35:15.245Z,996.68
2019-02-09T09:36:15.242Z,996.93
2019-02-09T09:37:15.200Z,996.76
2019-02-09T09:38:15.167Z,996.68
2019-02-09T09:39:15.161Z,996.83
2019-02-09T09:40:15.123Z,996.79
2019-02-09T09:41:15.101Z,996.74
2019-02-09T09:42:15.085Z,996.91
2019-02-09T09:43:15.059Z,996.96
2019-02-09T09:44:15.041Z,996.81
2019-02-09T09:45:15.014Z,996.66
2019-02-09T09:46:14.992Z,996.71
2019-02-09T09:47:14.970Z,996.86
2019-02-09T09:48:14.959Z,996.70
2019-02-09T09:49:14.930Z,996.88
2019-02-09T09:50:14.910Z,996.74
2019-02-09T09:51:14.894Z,996.83
2019-02-09T09:52:15.143Z,996.80
2019-02-09T09:53:14.845Z,996.90
2019-02-09T09:54:14.820Z,996.80
2019-02-09T09:55:14.803Z,997.08
2019-02-09T09:56:14.779Z,996.83
2019-02-09T09:57:14.765Z,996.73
2019-02-09T09:58:14.743Z,996.74
2019-02-09T09:59:14.727Z,996.85
2019-02-09T10:00:14.698Z,996.90
2019-02-09T10:01:14.672Z,996.89
2019-02-09T10:02:14.661Z,997.02
2019-02-09T10:03:14.637Z,996.98
2019-02-09T10:04:14.720Z,996.98
2019-02-09T10:05:14.585Z,996.86
2019-02-09T10:06:14.570Z,996.99
2019-02-09T10:07:14.554Z,997.00
2019-02-09T10:08:14.521Z,997.10
2019-02-09T10:09:14.505Z,997.16
2019-02-09T10:10:14.478Z,997.05
2019-02-09T10:11:14.466Z,997.03
2019-02-09T10:12:14.447Z,997.09
2019-02-09T10:13:14.433Z,997.12
2019-02-09T10:14:14.400Z,996.98
2019-02-09T10:15:14.378Z,997.09
2019-02-09T10:16:14.357Z,996.98
2019-02-09T10:17:14.345Z,996.92
2019-02-09T10:18:14.317Z,996.89
2019-02-09T10:19:14.348Z,996.84
2019-02-09T10:20:14.337Z,996.75
2019-02-09T10:21:14.260Z,996.93
2019-02-09T10:22:14.498Z,996.90
2019-02-09T10:23:14.222Z,996.88
2019-02-09T10:24:14.209Z,996.98
2019-02-09T10:25:14.180Z,997.10
2019-02-09T10:26:14.173Z,996.93
2019-02-09T10:27:14.147Z,997.08
2019-02-09T10:28:14.126Z,997.14
2019-02-09T10:29:14.103Z,997.02
2019-02-09T10:30:14.084Z,997.25
2019-02-09T10:31:14.070Z,997.14
2019-02-09T10:32:14.046Z,997.18
2019-02-09T10:33:14.029Z,997.19
2019-02-09T10:34:14.009Z,997.19
2019-02-09T10:35:13.993Z,997.05
2019-02-09T10:36:13.971Z,997.07
2019-02-09T10:37:13.954Z,997.35
2019-02-09T10:38:13.932Z,997.24
2019-02-09T10:39:13.916Z,997.19
2019-02-09T10:40:13.904Z,997.21
2019-02-09T10:41:13.985Z,997.22
2019-02-09T10:42:13.855Z,997.17
2019-02-09T10:43:13.849Z,997.13
2019-02-09T10:44:13.827Z,997.14
2019-02-09T10:45:13.808Z,997.11
2019-02-09T10:46:13.779Z,997.14
2019-02-09T10:47:13.766Z,997.24
2019-02-09T10:48:13.746Z,997.18
2019-02-09T10:49:13.729Z,997.20
2019-02-09T10:50:13.701Z,997.16
2019-02-09T10:51:13.684Z,997.18
2019-02-09T10:52:13.668Z,997.03
2019-02-09T10:53:13.642Z,997.34
2019-02-09T10:54:13.632Z,997.07
2019-02-09T10:55:13.606Z,997.26
2019-02-09T10:56:13.598Z,997.08
2019-02-09T10:57:13.570Z,997.22
2019-02-09T10:58:13.555Z,997.31
2019-02-09T10:59:13.523Z,997.12
2019-02-09T11:00:13.519Z,997.18
2019-02-09T11:01:13.484Z,997.04
2019-02-09T11:02:13.471Z,997.07
2019-02-09T11:03:13.452Z,997.11
2019-02-09T11:04:13.431Z,997.16
2019-02-09T11:05:13.411Z,996.90
2019-02-09T11:06:13.385Z,997.18
2019-02-09T11:07:13.368Z,997.20
2019-02-09T11:08:13.342Z,997.02
2019-02-09T11:09:13.320Z,997.30
2019-02-09T11:10:13.305Z,997.10
2019-02-09T11:11:13.340Z,997.27
2019-02-09T11:12:13.267Z,997.08
2019-02-09T11:13:13.248Z,997.14
2019-02-09T11:14:13.229Z,997.20
2019-02-09T11:15:13.197Z,997.14
2019-02-09T11:16:13.180Z,997.31
2019-02-09T11:17:13.157Z,997.30
2019-02-09T11:18:13.150Z,997.21
2019-02-09T11:19:13.117Z,997.32
2019-02-09T11:20:13.093Z,997.19
2019-02-09T11:21:13.072Z,997.34
2019-02-09T11:22:13.072Z,997.28
2019-02-09T11:23:13.049Z,997.26
2019-02-09T11:24:13.010Z,997.27
2019-02-09T11:25:12.990Z,997.03
2019-02-09T11:26:12.974Z,997.15
2019-02-09T11:27:13.446Z,997.13
2019-02-09T11:28:12.947Z,996.96
2019-02-09T11:29:12.916Z,997.16
2019-02-09T11:30:12.891Z,997.20
2019-02-09T11:31:12.896Z,997.11
2019-02-09T11:32:12.853Z,997.03
2019-02-09T11:33:12.826Z,997.13
2019-02-09T11:34:12.804Z,997.26
2019-02-09T11:35:12.789Z,997.19
2019-02-09T11:36:12.779Z,997.08
2019-02-09T11:37:12.752Z,997.29
2019-02-09T11:38:12.724Z,997.12
2019-02-09T11:39:12.700Z,997.21
2019-02-09T11:40:12.680Z,997.15
2019-02-09T11:41:12.669Z,997.23
2019-02-09T11:42:12.647Z,997.25
2019-02-09T11:43:12.620Z,997.13
2019-02-09T11:44:12.606Z,997.16
2019-02-09T11:45:12.580Z,997.06
2019-02-09T11:46:12.565Z,997.10
2019-02-09T11:47:12.542Z,997.33
2019-02-09T11:48:12.525Z,997.07
2019-02-09T11:49:12.496Z,997.17
2019-02-09T11:50:12.497Z,997.08
2019-02-09T11:51:12.476Z,997.23
2019-02-09T11:52:12.434Z,997.00
2019-02-09T11:53:13.163Z,997.13
2019-02-09T11:54:13.129Z,997.12
2019-02-09T11:55:12.378Z,997.29
2019-02-09T11:56:12.363Z,997.27
2019-02-09T11:57:12.328Z,997.33
2019-02-09T11:58:12.317Z,997.24
2019-02-09T11:59:12.311Z,997.31
2019-02-09T12:00:12.275Z,997.15
2019-02-09T12:01:12.261Z,997.20
2019-02-09T12:02:12.228Z,997.17
2019-02-09T12:03:15.739Z,997.21
2019-02-09T12:04:12.186Z,997.36
2019-02-09T12:05:12.178Z,997.12
2019-02-09T12:06:12.147Z,997.22
2019-02-09T12:07:12.133Z,997.25
2019-02-09T12:08:12.114Z,997.37
2019-02-09T12:09:12.091Z,997.26
2019-02-09T12:10:12.063Z,997.25
2019-02-09T12:11:12.043Z,997.09
2019-02-09T12:12:12.025Z,997.23
2019-02-09T12:13:12.001Z,997.19
2019-02-09T12:14:11.979Z,997.28
2019-02-09T12:15:11.980Z,997.15
2019-02-09T12:16:11.938Z,997.22
2019-02-09T12:17:11.919Z,997.22
2019-02-09T12:18:11.904Z,997.19
2019-02-09T12:19:11.890Z,997.05
2019-02-09T12:20:11.855Z,997.24
2019-02-09T12:21:11.847Z,997.19
2019-02-09T12:22:11.823Z,997.24
2019-02-09T12:23:11.797Z,997.22
2019-02-09T12:24:12.092Z,997.16
2019-02-09T12:25:11.760Z,997.10
2019-02-09T12:26:11.731Z,997.18
2019-02-09T12:27:11.719Z,997.23
2019-02-09T12:28:11.702Z,997.31